createdAt,value
2022-11-16T00:02:45.083Z,7.10
2022-11-16T00:05:46.730Z,7.11
2022-11-16T00:09:10.472Z,7.10
2022-11-16T00:12:12.701Z,7.11
2022-11-16T00:15:14.302Z,7.13
2022-11-16T00:18:15.845Z,7.00
2022-11-16T00:21:17.416Z,7.12
2022-11-16T00:24:20.354Z,7.14
2022-11-16T00:27:21.872Z,7.16
2022-11-16T00:30:23.375Z,7.17
2022-11-16T00:33:24.927Z,7.16
2022-11-16T00:36:26.459Z,7.17
2022-11-16T00:39:28.029Z,7.17
2022-11-16T00:42:29.563Z,7.18
2022-11-16T00:45:31.149Z,7.20
2022-11-16T00:48:32.970Z,7.19
2022-11-16T00:51:35.618Z,7.18
2022-11-16T00:54:37.155Z,7.21
2022-11-16T00:57:38.711Z,7.21
2022-11-16T01:00:41.091Z,7.19
2022-11-16T01:03:42.742Z,7.22
2022-11-16T01:06:44.297Z,7.22
2022-11-16T01:09:45.875Z,7.22
2022-11-16T01:12:48.977Z,7.21
2022-11-16T01:15:50.508Z,7.22
2022-11-16T01:18:53.842Z,7.24
2022-11-16T01:21:55.399Z,7.24
2022-11-16T01:24:56.962Z,7.28
2022-11-16T01:27:58.522Z,7.25
2022-11-16T01:31:00.246Z,7.24
2022-11-16T01:34:01.937Z,7.24
2022-11-16T01:37:03.465Z,7.27
2022-11-16T01:40:05.612Z,7.27
2022-11-16T01:43:18.101Z,7.25
2022-11-16T01:46:19.846Z,7.24
2022-11-16T01:49:22.790Z,7.27
2022-11-16T01:52:28.169Z,7.27
2022-11-16T01:55:31.451Z,7.24
2022-11-16T01:58:33.173Z,7.23
2022-11-16T02:01:34.991Z,7.22
2022-11-16T02:04:36.559Z,7.21
2022-11-16T02:08:09.132Z,7.20
2022-11-16T02:11:29.085Z,7.21
2022-11-16T02:14:36.450Z,7.24
2022-11-16T02:17:46.985Z,7.22
2022-11-16T02:20:54.483Z,7.22
2022-11-16T02:23:55.930Z,7.22
2022-11-16T02:27:03.409Z,7.19
2022-11-16T02:30:05.862Z,7.19
2022-11-16T02:33:12.335Z,7.19
2022-11-16T02:36:17.954Z,7.20
2022-11-16T02:39:23.363Z,7.20
2022-11-16T02:43:08.346Z,7.19
2022-11-16T02:46:15.273Z,7.21
2022-11-16T02:49:20.311Z,7.22
2022-11-16T02:52:22.258Z,7.21
2022-11-16T02:55:24.427Z,7.19
2022-11-16T02:58:26.087Z,7.20
2022-11-16T03:01:41.493Z,7.19
2022-11-16T03:04:49.705Z,7.20
2022-11-16T03:07:59.690Z,7.05
2022-11-16T03:11:23.294Z,7.23
2022-11-16T03:14:29.370Z,7.22
2022-11-16T03:17:45.898Z,7.20
2022-11-16T03:20:49.989Z,7.18
2022-11-16T03:23:51.731Z,7.17
2022-11-16T03:27:28.710Z,7.15
2022-11-16T03:30:33.021Z,7.17
2022-11-16T03:33:41.180Z,7.18
2022-11-16T03:36:43.774Z,7.19
2022-11-16T03:39:45.357Z,7.19
2022-11-16T03:42:49.536Z,7.18
2022-11-16T03:45:51.108Z,7.18
2022-11-16T03:48:57.379Z,7.19
2022-11-16T03:51:59.244Z,7.19
2022-11-16T03:55:00.782Z,7.19
2022-11-16T03:58:02.344Z,7.18
2022-11-16T04:01:04.259Z,7.19
2022-11-16T04:04:05.886Z,7.03
2022-11-16T04:07:27.030Z,7.20
2022-11-16T04:10:47.321Z,7.21
2022-11-16T04:14:09.270Z,7.21
2022-11-16T04:17:31.575Z,7.20
2022-11-16T04:20:51.364Z,7.19
2022-11-16T04:24:11.643Z,7.21
2022-11-16T04:27:33.187Z,7.21
2022-11-16T04:30:53.903Z,7.21
2022-11-16T04:34:14.188Z,7.20
2022-11-16T04:37:55.684Z,7.18
2022-11-16T04:40:57.206Z,7.20
2022-11-16T04:43:59.027Z,7.20
2022-11-16T04:47:09.240Z,7.22
2022-11-16T04:50:11.286Z,7.21
2022-11-16T04:53:13.485Z,7.01
2022-11-16T04:56:14.998Z,7.02
2022-11-16T04:59:17.362Z,7.23
2022-11-16T05:02:19.030Z,7.23
2022-11-16T05:05:20.701Z,7.24
2022-11-16T05:08:22.236Z,7.23
2022-11-16T05:11:23.844Z,7.24
2022-11-16T05:14:25.386Z,7.25
2022-11-16T05:17:27.492Z,7.22
2022-11-16T05:20:47.621Z,7.22
2022-11-16T05:24:07.922Z,6.84
2022-11-16T05:27:14.223Z,7.23
2022-11-16T05:30:16.192Z,7.04
2022-11-16T05:33:18.618Z,7.24
2022-11-16T05:36:20.153Z,7.25
2022-11-16T05:39:21.856Z,7.26
2022-11-16T05:42:23.503Z,7.24
2022-11-16T05:45:25.044Z,7.25
2022-11-16T05:48:26.577Z,7.26
2022-11-16T05:51:28.119Z,7.26
2022-11-16T05:54:31.213Z,7.27
2022-11-16T05:57:32.789Z,7.28
2022-11-16T06:00:34.339Z,7.29
2022-11-16T06:03:36.460Z,7.33
2022-11-16T06:06:38.552Z,7.32
2022-11-16T06:09:40.155Z,7.22
2022-11-16T06:12:41.697Z,7.31
2022-11-16T06:18:59.427Z,7.34
2022-11-16T06:22:01.058Z,7.36
2022-11-16T06:25:02.886Z,7.36
2022-11-16T06:28:07.875Z,7.38
2022-11-16T06:31:09.886Z,7.40
2022-11-16T06:34:11.451Z,7.44
2022-11-16T06:37:12.985Z,7.45
2022-11-16T06:40:14.902Z,7.48
2022-11-16T06:43:16.575Z,7.53
2022-11-16T06:46:18.182Z,7.56
2022-11-16T06:49:19.717Z,7.56
2022-11-16T06:52:21.297Z,7.57
2022-11-16T06:55:22.812Z,7.59
2022-11-16T06:58:24.338Z,7.58
2022-11-16T07:01:25.927Z,7.60
2022-11-16T07:04:27.498Z,7.63
2022-11-16T07:07:29.113Z,7.64
2022-11-16T07:10:30.716Z,7.65
2022-11-16T07:13:36.917Z,7.66
2022-11-16T07:16:38.426Z,7.68
2022-11-16T07:19:40.183Z,7.69
2022-11-16T07:22:41.736Z,7.61
2022-11-16T07:25:46.739Z,7.68
2022-11-16T07:28:48.771Z,7.83
2022-11-16T07:31:50.540Z,7.85
2022-11-16T07:34:52.068Z,7.87
2022-11-16T07:37:53.619Z,7.94
2022-11-16T07:40:55.168Z,7.95
2022-11-16T07:43:56.963Z,7.98
2022-11-16T07:46:58.485Z,8.02
2022-11-16T07:50:00.024Z,8.10
2022-11-16T07:53:01.856Z,8.12
2022-11-16T07:56:04.018Z,8.13
2022-11-16T07:59:06.111Z,8.14
2022-11-16T08:02:09.980Z,8.24
2022-11-16T08:05:11.529Z,8.26
2022-11-16T08:08:13.363Z,8.28
2022-11-16T08:11:15.223Z,8.37
2022-11-16T08:14:18.651Z,8.35
2022-11-16T08:17:20.185Z,8.45
2022-11-16T08:20:21.936Z,8.44
2022-11-16T08:23:23.493Z,8.40
2022-11-16T08:26:25.072Z,8.48
2022-11-16T08:29:26.852Z,8.48
2022-11-16T08:32:29.761Z,8.43
2022-11-16T08:35:31.308Z,8.47
2022-11-16T08:38:33.117Z,8.50
2022-11-16T08:41:38.028Z,8.49
2022-11-16T08:44:39.550Z,8.47
2022-11-16T08:47:41.090Z,8.49
2022-11-16T08:51:15.301Z,8.54
2022-11-16T08:54:05.242Z,8.55
2022-11-16T08:57:06.958Z,8.54
2022-11-16T09:00:09.194Z,8.53
2022-11-16T09:03:10.728Z,8.59
2022-11-16T09:06:12.579Z,8.61
2022-11-16T09:09:14.148Z,8.64
2022-11-16T09:12:15.824Z,8.68
2022-11-16T09:15:19.343Z,8.73
2022-11-16T09:18:20.904Z,8.77
2022-11-16T09:21:24.543Z,8.82
2022-11-16T09:24:26.097Z,8.91
2022-11-16T09:27:27.639Z,8.95
2022-11-16T09:30:29.192Z,8.96
2022-11-16T09:33:31.609Z,8.61
2022-11-16T09:36:33.709Z,9.06
2022-11-16T09:39:35.212Z,9.00
2022-11-16T09:43:11.908Z,9.07
2022-11-16T09:46:37.494Z,9.10
2022-11-16T09:49:42.201Z,9.05
2022-11-16T09:52:46.712Z,9.08
2022-11-16T09:55:53.781Z,9.08
2022-11-16T09:59:23.282Z,9.04
2022-11-16T10:02:39.068Z,9.02
2022-11-16T10:05:51.917Z,8.97
2022-11-16T10:08:56.680Z,9.01
2022-11-16T10:12:01.033Z,8.99
2022-11-16T10:15:23.667Z,8.92
2022-11-16T10:18:36.248Z,8.93
2022-11-16T10:21:48.379Z,8.98
2022-11-16T10:25:01.158Z,9.07
2022-11-16T10:28:27.688Z,9.12
2022-11-16T10:31:49.098Z,9.12
2022-11-16T10:35:03.749Z,9.27
2022-11-16T10:38:14.966Z,9.20
2022-11-16T10:41:16.504Z,9.11
2022-11-16T10:44:37.485Z,9.05
2022-11-16T10:47:42.734Z,9.14
2022-11-16T10:50:47.264Z,9.18
2022-11-16T10:53:49.551Z,9.20
2022-11-16T11:07:24.642Z,9.56
2022-11-16T11:10:35.118Z,9.40
2022-11-16T11:13:36.950Z,9.38
2022-11-16T11:16:38.709Z,9.43
2022-11-16T11:19:40.260Z,9.46
2022-11-16T11:22:52.592Z,9.57
2022-11-16T11:25:59.731Z,9.64
2022-11-16T11:29:02.313Z,9.73
2022-11-16T11:32:13.184Z,9.76
2022-11-16T11:35:30.381Z,9.72
2022-11-16T11:38:32.745Z,9.71
2022-11-16T11:41:37.575Z,9.65
2022-11-16T11:45:04.108Z,9.63
2022-11-16T11:48:29.170Z,9.48
2022-11-16T11:51:35.272Z,9.37
2022-11-16T11:54:46.162Z,9.23
2022-11-16T11:57:50.004Z,9.20
2022-11-16T12:01:25.276Z,9.17
2022-11-16T12:04:39.547Z,9.17
2022-11-16T12:08:17.179Z,9.20
2022-11-16T12:11:34.030Z,9.19
2022-11-16T12:14:35.473Z,9.20
2022-11-16T12:17:55.243Z,9.19
2022-11-16T12:21:14.127Z,9.16
2022-11-16T12:24:33.357Z,9.12
2022-11-16T12:28:23.044Z,9.12
2022-11-16T12:31:27.535Z,9.07
2022-11-16T12:34:53.731Z,9.05
2022-11-16T12:38:16.119Z,9.04
2022-11-16T12:41:20.592Z,8.67
2022-11-16T12:44:28.437Z,9.03
2022-11-16T12:48:04.181Z,9.01
2022-11-16T12:51:38.501Z,8.68
2022-11-16T12:55:24.788Z,9.10
2022-11-16T12:58:26.827Z,9.13
2022-11-16T13:02:12.637Z,9.11
2022-11-16T13:05:19.249Z,9.08
2022-11-16T13:08:38.100Z,9.01
2022-11-16T13:11:45.739Z,9.02
2022-11-16T13:14:49.006Z,9.04
2022-11-16T13:17:55.633Z,9.01
2022-11-16T13:21:12.957Z,8.99
2022-11-16T13:24:23.278Z,8.97
2022-11-16T13:27:48.148Z,8.98
2022-11-16T13:31:03.612Z,8.89
2022-11-16T13:34:15.684Z,8.93
2022-11-16T13:37:39.261Z,8.91
2022-11-16T13:40:41.335Z,8.96
2022-11-16T13:43:48.811Z,8.94
2022-11-16T13:47:04.147Z,8.91
2022-11-16T13:50:07.243Z,8.85
2022-11-16T13:57:07.270Z,8.86
2022-11-16T14:00:21.229Z,8.81
2022-11-16T14:03:22.683Z,8.80
2022-11-16T14:06:24.231Z,8.81
2022-11-16T14:09:42.697Z,8.81
2022-11-16T14:12:44.164Z,8.81
2022-11-16T14:15:45.704Z,8.79
2022-11-16T14:18:59.347Z,8.74
2022-11-16T14:22:07.706Z,8.73
2022-11-16T14:25:39.464Z,8.66
2022-11-16T14:29:07.352Z,8.64
2022-11-16T14:32:21.000Z,8.63
2022-11-16T14:35:32.496Z,8.61
2022-11-16T14:38:39.350Z,8.60
2022-11-16T14:41:44.450Z,8.61
2022-11-16T14:44:46.963Z,8.57
2022-11-16T14:47:48.896Z,8.55
2022-11-16T14:51:12.641Z,8.43
2022-11-16T14:54:29.294Z,8.52
2022-11-16T14:57:31.088Z,8.52
2022-11-16T15:00:32.696Z,8.51
2022-11-16T15:03:39.810Z,8.51
2022-11-16T15:06:49.020Z,8.49
2022-11-16T15:09:53.423Z,8.49
2022-11-16T15:12:57.479Z,8.48
2022-11-16T15:16:16.263Z,8.47
2022-11-16T15:19:18.254Z,8.45
2022-11-16T15:22:20.149Z,8.44
2022-11-16T15:25:37.808Z,8.45
2022-11-16T15:28:39.999Z,8.05
2022-11-16T15:31:42.253Z,8.40
2022-11-16T15:34:48.056Z,8.40
2022-11-16T15:38:04.973Z,8.40
2022-11-16T15:41:06.565Z,8.38
2022-11-16T15:44:14.648Z,8.34
2022-11-16T15:47:17.329Z,8.34
2022-11-16T15:50:19.362Z,8.34
2022-11-16T15:53:39.832Z,8.33
2022-11-16T15:56:41.662Z,8.33
2022-11-16T15:59:48.432Z,8.32
2022-11-16T16:02:50.860Z,8.32
2022-11-16T16:05:53.166Z,8.31
2022-11-16T16:09:05.611Z,8.33
2022-11-16T16:12:28.012Z,8.32
2022-11-16T16:15:40.113Z,8.32
2022-11-16T16:18:43.202Z,8.32
2022-11-16T16:21:46.048Z,8.32
2022-11-16T16:24:47.574Z,8.32
2022-11-16T16:27:49.216Z,8.30
2022-11-16T16:30:51.125Z,8.31
2022-11-16T16:33:52.852Z,8.32
2022-11-16T16:36:54.386Z,8.31
2022-11-16T16:39:56.192Z,8.30
2022-11-16T16:42:58.089Z,8.27
2022-11-16T16:46:03.944Z,8.27
2022-11-16T16:49:05.514Z,8.28
2022-11-16T16:52:08.029Z,8.28
2022-11-16T16:55:09.577Z,8.29
2022-11-16T16:58:12.262Z,8.28
2022-11-16T17:01:14.165Z,8.27
2022-11-16T17:04:15.734Z,8.27
2022-11-16T17:07:17.469Z,8.27
2022-11-16T17:10:19.276Z,8.27
2022-11-16T17:13:20.863Z,8.27
2022-11-16T17:16:22.490Z,8.28
2022-11-16T17:19:24.210Z,8.26
2022-11-16T17:22:25.747Z,8.23
2022-11-16T17:25:27.335Z,8.24
2022-11-16T17:28:28.847Z,8.23
2022-11-16T17:31:30.395Z,8.22
2022-11-16T17:34:32.052Z,8.21
2022-11-16T17:37:33.595Z,8.21
2022-11-16T17:40:35.156Z,8.22
2022-11-16T17:43:37.010Z,8.21
2022-11-16T17:46:38.687Z,8.23
2022-11-16T17:49:40.250Z,8.17
2022-11-16T17:52:41.791Z,8.21
2022-11-16T17:55:43.313Z,8.19
2022-11-16T17:58:45.388Z,8.21
2022-11-16T18:01:47.054Z,8.00
2022-11-16T18:04:51.288Z,8.20
2022-11-16T18:07:53.051Z,8.19
2022-11-16T18:10:54.580Z,8.20
2022-11-16T18:13:58.408Z,8.19
2022-11-16T18:16:59.981Z,8.17
2022-11-16T18:20:01.877Z,8.19
2022-11-16T18:23:04.342Z,8.20
2022-11-16T18:26:13.744Z,8.21
2022-11-16T18:29:15.890Z,8.16
2022-11-16T18:32:17.475Z,8.17
2022-11-16T18:35:19.009Z,8.16
2022-11-16T18:38:20.613Z,8.14
2022-11-16T18:41:24.561Z,8.13
2022-11-16T18:44:26.205Z,8.13
2022-11-16T18:47:27.787Z,8.13
2022-11-16T18:50:29.318Z,8.11
2022-11-16T18:53:32.407Z,8.11
2022-11-16T18:56:36.198Z,8.10
2022-11-16T18:59:38.121Z,8.11
2022-11-16T19:02:39.667Z,8.09
2022-11-16T19:05:41.192Z,8.09
2022-11-16T19:08:42.812Z,8.11
2022-11-16T19:11:44.444Z,7.99
2022-11-16T19:14:45.970Z,8.09
2022-11-16T19:18:06.628Z,8.09
2022-11-16T19:21:11.166Z,8.09
2022-11-16T19:24:12.685Z,8.10
2022-11-16T19:27:14.231Z,8.09
2022-11-16T19:30:15.946Z,8.09
2022-11-16T19:33:17.487Z,8.09
2022-11-16T19:36:19.781Z,8.08
2022-11-16T19:39:21.307Z,7.95
2022-11-16T19:42:22.860Z,8.07
2022-11-16T19:45:24.381Z,8.09
2022-11-16T19:48:25.901Z,8.06
2022-11-16T19:51:29.463Z,8.03
2022-11-16T19:54:30.980Z,8.02
2022-11-16T19:57:32.550Z,8.00
2022-11-16T20:00:34.132Z,8.00
2022-11-16T20:03:38.307Z,8.01
2022-11-16T20:06:40.828Z,8.00
2022-11-16T20:09:42.346Z,8.00
2022-11-16T20:12:43.914Z,8.00
2022-11-16T20:15:45.443Z,8.00
2022-11-16T20:18:47.654Z,7.97
2022-11-16T20:21:49.251Z,7.74
2022-11-16T20:24:50.777Z,7.76
2022-11-16T20:27:52.296Z,7.91
2022-11-16T20:30:53.860Z,7.88
2022-11-16T20:33:57.900Z,7.87
2022-11-16T20:36:59.407Z,7.84
2022-11-16T20:40:00.976Z,7.84
2022-11-16T20:43:02.551Z,7.83
2022-11-16T20:46:07.442Z,7.87
2022-11-16T20:49:09.058Z,7.87
2022-11-16T20:52:10.581Z,7.86
2022-11-16T20:55:12.082Z,7.85
2022-11-16T20:58:17.528Z,7.85
2022-11-16T21:01:28.829Z,7.85
2022-11-16T21:04:30.560Z,7.87
2022-11-16T21:07:32.153Z,7.88
2022-11-16T21:10:36.322Z,7.87
2022-11-16T21:13:56.278Z,7.87
2022-11-16T21:16:57.915Z,7.87
2022-11-16T21:20:25.372Z,7.86
2022-11-16T21:23:20.972Z,7.86
2022-11-16T21:26:24.473Z,7.84
2022-11-16T21:29:27.203Z,7.83
2022-11-16T21:32:28.738Z,7.81
2022-11-16T21:35:30.385Z,7.77
2022-11-16T21:38:32.514Z,7.74
2022-11-16T21:41:34.452Z,7.70
2022-11-16T21:44:44.841Z,7.69
2022-11-16T21:47:46.363Z,7.68
2022-11-16T21:50:47.880Z,7.70
2022-11-16T21:53:49.440Z,7.72
2022-11-16T21:56:50.960Z,7.51
2022-11-16T21:59:52.509Z,7.72
2022-11-16T22:02:54.119Z,7.72
2022-11-16T22:06:19.221Z,7.72
2022-11-16T22:09:20.818Z,7.70
2022-11-16T22:12:22.348Z,7.69
2022-11-16T22:15:23.914Z,7.67
2022-11-16T22:18:25.450Z,7.68
2022-11-16T22:21:26.971Z,7.70
2022-11-16T22:24:28.482Z,7.72
2022-11-16T22:27:30.320Z,7.73
2022-11-16T22:30:31.940Z,7.75
2022-11-16T22:33:34.602Z,7.72
2022-11-16T22:36:36.443Z,7.75
2022-11-16T22:39:37.999Z,7.75
2022-11-16T22:42:39.524Z,7.75
2022-11-16T22:45:41.079Z,7.76
2022-11-16T22:48:43.675Z,7.74
2022-11-16T22:51:45.861Z,7.74
2022-11-16T22:54:47.404Z,7.73
2022-11-16T22:57:48.982Z,7.66
2022-11-16T23:00:52.064Z,7.66
2022-11-16T23:03:53.666Z,7.72
2022-11-16T23:06:55.272Z,7.70
2022-11-16T23:09:56.807Z,7.70
2022-11-16T23:13:16.991Z,7.68
2022-11-16T23:16:18.532Z,7.67
2022-11-16T23:19:39.743Z,7.67
2022-11-16T23:22:59.591Z,7.69
2022-11-16T23:26:20.513Z,7.68
2022-11-16T23:29:22.035Z,7.64
2022-11-16T23:32:23.584Z,7.62
2022-11-16T23:35:25.145Z,7.61
2022-11-16T23:38:26.674Z,7.60
2022-11-16T23:41:47.791Z,7.59
2022-11-16T23:44:49.304Z,7.57
2022-11-16T23:47:50.816Z,7.56
2022-11-16T23:50:52.344Z,7.55
2022-11-16T23:53:54.768Z,7.53
2022-11-16T23:56:57.512Z,7.55
2022-11-16T23:59:59.024Z,7.45
